createdAt,value
2016-10-02T00:00:33.713Z,1008.06
2016-10-02T00:01:34.407Z,1008.09
2016-10-02T00:02:35.098Z,1008.1
2016-10-02T00:03:35.786Z,1008.12
2016-10-02T00:04:36.494Z,1008.1
2016-10-02T00:05:37.164Z,1008.08
2016-10-02T00:06:37.876Z,1008.1
2016-10-02T00:07:38.569Z,1008.06
2016-10-02T00:08:39.244Z,1008.05
2016-10-02T00:09:39.913Z,1008.04
2016-10-02T00:10:40.586Z,1008.05
2016-10-02T00:11:41.263Z,1008.08
2016-10-02T00:12:41.966Z,1008.09
2016-10-02T00:13:42.663Z,1008.1
2016-10-02T00:14:43.332Z,1008.08
2016-10-02T00:15:44.008Z,1008.07
2016-10-02T00:16:44.680Z,1008.07
2016-10-02T00:17:45.350Z,1008.02
2016-10-02T00:18:46.023Z,1008.04
2016-10-02T00:19:46.775Z,1007.99
2016-10-02T00:20:47.475Z,1007.94
2016-10-02T00:21:48.146Z,1007.93
2016-10-02T00:22:48.818Z,1007.97
2016-10-02T00:23:49.485Z,1007.95
2016-10-02T00:24:50.161Z,1007.97
2016-10-02T00:25:50.837Z,1007.96
2016-10-02T00:26:51.536Z,1007.89
2016-10-02T00:27:52.222Z,1007.89
2016-10-02T00:28:52.903Z,1007.89
2016-10-02T00:29:53.575Z,1007.87
2016-10-02T00:30:54.245Z,1007.87
2016-10-02T00:31:54.919Z,1007.89
2016-10-02T00:32:55.635Z,1007.84
2016-10-02T00:33:56.320Z,1007.81
2016-10-02T00:34:56.986Z,1007.83
2016-10-02T00:35:57.664Z,1007.84
2016-10-02T00:36:58.365Z,1007.83
2016-10-02T00:37:59.065Z,1007.82
2016-10-02T00:38:59.750Z,1007.83
2016-10-02T00:40:00.433Z,1007.81
2016-10-02T00:41:01.100Z,1007.86
2016-10-02T00:42:01.776Z,1007.94
2016-10-02T00:43:02.449Z,1007.95
2016-10-02T00:44:03.128Z,1007.98
2016-10-02T00:45:03.814Z,1007.96
2016-10-02T00:46:04.501Z,1007.92
2016-10-02T00:47:05.209Z,1007.93
2016-10-02T00:48:05.903Z,1007.92
2016-10-02T00:49:06.580Z,1007.89
2016-10-02T00:50:07.256Z,1007.92
2016-10-02T00:51:07.956Z,1007.93
2016-10-02T00:52:08.669Z,1007.99
2016-10-02T00:53:09.356Z,1008
2016-10-02T00:54:10.063Z,1008.03
2016-10-02T00:55:10.770Z,1008.01
2016-10-02T00:56:11.438Z,1007.99
2016-10-02T00:57:12.118Z,1007.98
2016-10-02T00:58:12.794Z,1007.99
2016-10-02T00:59:13.490Z,1007.96
2016-10-02T01:00:14.179Z,1007.96
2016-10-02T01:01:14.883Z,1007.93
2016-10-02T01:02:15.571Z,1007.94
2016-10-02T01:03:16.238Z,1007.92
2016-10-02T01:04:16.931Z,1007.93
2016-10-02T01:05:17.598Z,1007.93
2016-10-02T01:06:18.266Z,1007.93
2016-10-02T01:07:18.946Z,1007.93
2016-10-02T01:08:26.273Z,1007.9
2016-10-02T01:09:26.947Z,1007.88
2016-10-02T01:10:27.616Z,1007.87
2016-10-02T01:11:28.288Z,1007.87
2016-10-02T01:12:28.961Z,1007.87
2016-10-02T01:13:29.629Z,1007.92
2016-10-02T01:14:30.327Z,1007.91
2016-10-02T01:15:31.025Z,1007.94
2016-10-02T01:16:31.700Z,1007.9
2016-10-02T01:17:32.376Z,1007.81
2016-10-02T01:18:33.054Z,1007.83
2016-10-02T01:19:33.754Z,1007.83
2016-10-02T01:20:34.438Z,1007.83
2016-10-02T01:21:35.128Z,1007.78
2016-10-02T01:22:35.828Z,1007.82
2016-10-02T01:23:36.504Z,1007.74
2016-10-02T01:24:37.194Z,1007.73
2016-10-02T01:25:37.884Z,1007.75
2016-10-02T01:26:38.547Z,1007.77
2016-10-02T01:27:39.237Z,1007.79
2016-10-02T01:28:39.927Z,1007.77
2016-10-02T01:29:40.608Z,1007.79
2016-10-02T01:30:41.320Z,1007.78
2016-10-02T01:31:41.999Z,1007.8
2016-10-02T01:32:42.692Z,1007.84
2016-10-02T01:33:43.388Z,1007.81
2016-10-02T01:34:44.054Z,1007.79
2016-10-02T01:35:44.733Z,1007.86
2016-10-02T01:36:45.415Z,1007.81
2016-10-02T01:37:46.095Z,1007.82
2016-10-02T01:38:46.770Z,1007.84
2016-10-02T01:39:47.482Z,1007.81
2016-10-02T01:40:48.149Z,1007.84
2016-10-02T01:41:48.877Z,1007.82
2016-10-02T01:42:49.543Z,1007.88
2016-10-02T01:43:50.243Z,1007.85
2016-10-02T01:44:50.926Z,1007.84
2016-10-02T01:45:51.612Z,1007.85
2016-10-02T01:46:52.298Z,1007.89
2016-10-02T01:47:52.974Z,1007.82
2016-10-02T01:48:53.644Z,1007.87
2016-10-02T01:49:54.321Z,1007.81
2016-10-02T01:50:54.990Z,1007.84
2016-10-02T01:51:55.660Z,1007.87
2016-10-02T01:52:56.330Z,1007.86
2016-10-02T01:53:57.003Z,1007.84
2016-10-02T01:54:57.676Z,1007.83
2016-10-02T01:55:58.346Z,1007.85
2016-10-02T01:56:59.018Z,1007.81
2016-10-02T01:57:59.729Z,1007.75
2016-10-02T01:59:00.419Z,1007.82
2016-10-02T02:00:01.092Z,1007.79
2016-10-02T02:01:01.766Z,1007.82
2016-10-02T02:02:02.439Z,1007.78
2016-10-02T02:03:03.118Z,1007.82
2016-10-02T02:04:03.797Z,1007.8
2016-10-02T02:05:04.490Z,1007.76
2016-10-02T02:06:05.170Z,1007.81
2016-10-02T02:07:05.851Z,1007.78
2016-10-02T02:08:06.511Z,1007.77
2016-10-02T02:09:07.201Z,1007.8
2016-10-02T02:10:07.872Z,1007.79
2016-10-02T02:11:08.548Z,1007.82
2016-10-02T02:12:09.226Z,1007.8
2016-10-02T02:13:09.912Z,1007.82
2016-10-02T02:14:10.642Z,1007.84
2016-10-02T02:15:11.325Z,1007.81
2016-10-02T02:16:12.008Z,1007.82
2016-10-02T02:17:12.685Z,1007.81
2016-10-02T02:18:13.357Z,1007.82
2016-10-02T02:19:14.057Z,1007.8
2016-10-02T02:20:14.740Z,1007.81
2016-10-02T02:21:15.424Z,1007.81
2016-10-02T02:22:16.108Z,1007.81
2016-10-02T02:23:16.789Z,1007.82
2016-10-02T02:24:17.470Z,1007.84
2016-10-02T02:25:18.139Z,1007.82
2016-10-02T02:26:18.821Z,1007.81
2016-10-02T02:27:19.499Z,1007.83
2016-10-02T02:28:20.191Z,1007.8
2016-10-02T02:29:20.863Z,1007.81
2016-10-02T02:30:21.567Z,1007.86
2016-10-02T02:31:22.259Z,1007.91
2016-10-02T02:32:22.944Z,1007.88
2016-10-02T02:33:23.620Z,1007.87
2016-10-02T02:34:24.298Z,1007.92
2016-10-02T02:35:24.971Z,1007.86
2016-10-02T02:36:25.655Z,1007.85
2016-10-02T02:37:26.333Z,1007.77
2016-10-02T02:38:27.016Z,1007.79
2016-10-02T02:39:27.701Z,1007.78
2016-10-02T02:40:28.376Z,1007.76
2016-10-02T02:41:29.089Z,1007.79
2016-10-02T02:42:29.761Z,1007.79
2016-10-02T02:43:30.447Z,1007.83
2016-10-02T02:44:31.126Z,1007.8
2016-10-02T02:45:31.794Z,1007.79
2016-10-02T02:46:32.475Z,1007.81
2016-10-02T02:47:33.136Z,1007.81
2016-10-02T02:48:33.817Z,1007.82
2016-10-02T02:49:34.491Z,1007.85
2016-10-02T02:50:35.165Z,1007.88
2016-10-02T02:51:35.833Z,1007.94
2016-10-02T02:52:36.534Z,1007.99
2016-10-02T02:53:37.209Z,1008.03
2016-10-02T02:54:37.883Z,1008.06
2016-10-02T02:55:38.569Z,1008.04
2016-10-02T02:56:39.259Z,1008.04
2016-10-02T02:57:39.948Z,1008.03
2016-10-02T02:58:40.616Z,1008.04
2016-10-02T02:59:41.322Z,1008.08
2016-10-02T03:00:41.994Z,1008.03
2016-10-02T03:01:42.666Z,1008.03
2016-10-02T03:02:43.372Z,1008.06
2016-10-02T03:03:44.049Z,1007.98
2016-10-02T03:04:44.753Z,1007.96
2016-10-02T03:05:45.430Z,1007.96
2016-10-02T03:06:46.099Z,1007.95
2016-10-02T03:07:46.777Z,1007.95
2016-10-02T03:08:47.445Z,1007.94
2016-10-02T03:09:48.119Z,1007.9
2016-10-02T03:10:48.793Z,1007.91
2016-10-02T03:11:49.479Z,1007.89
2016-10-02T03:12:50.154Z,1007.88
2016-10-02T03:13:50.835Z,1007.87
2016-10-02T03:14:51.519Z,1007.88
2016-10-02T03:15:52.204Z,1007.88
2016-10-02T03:16:52.882Z,1007.9
2016-10-02T03:17:53.566Z,1007.96
2016-10-02T03:18:54.253Z,1007.96
2016-10-02T03:19:54.964Z,1008.01
2016-10-02T03:20:55.645Z,1008.01
2016-10-02T03:21:56.326Z,1008.01
2016-10-02T03:22:57.032Z,1008.01
2016-10-02T03:23:57.716Z,1008.01
2016-10-02T03:24:58.397Z,1008
2016-10-02T03:25:59.074Z,1007.95
2016-10-02T03:26:59.749Z,1007.95
2016-10-02T03:28:00.446Z,1007.99
2016-10-02T03:29:01.142Z,1008
2016-10-02T03:30:01.815Z,1008
2016-10-02T03:31:02.486Z,1007.99
2016-10-02T03:32:03.161Z,1008
2016-10-02T03:33:03.834Z,1008.05
2016-10-02T03:34:04.508Z,1008.07
2016-10-02T03:35:05.183Z,1008.05
2016-10-02T03:36:05.853Z,1008.07
2016-10-02T03:37:06.524Z,1008.11
2016-10-02T03:38:07.197Z,1008.12
2016-10-02T03:39:07.861Z,1008.12
2016-10-02T03:40:08.533Z,1008.12
2016-10-02T03:41:09.217Z,1008.09
2016-10-02T03:42:09.892Z,1008.08
2016-10-02T03:43:10.564Z,1008.09
2016-10-02T03:44:11.254Z,1008.13
2016-10-02T03:45:11.947Z,1008.1
2016-10-02T03:46:12.634Z,1008.07
2016-10-02T03:47:13.310Z,1008.02
2016-10-02T03:48:14.000Z,1008.01
2016-10-02T03:49:14.674Z,1008
2016-10-02T03:50:15.343Z,1008
2016-10-02T03:51:16.026Z,1007.99
2016-10-02T03:52:16.701Z,1007.99
2016-10-02T03:53:17.405Z,1007.95
2016-10-02T03:54:18.084Z,1007.97
2016-10-02T03:55:18.772Z,1007.95
2016-10-02T03:56:19.458Z,1007.98
2016-10-02T03:57:20.137Z,1007.96
2016-10-02T03:58:20.828Z,1007.97
2016-10-02T03:59:21.499Z,1007.96
2016-10-02T04:00:22.166Z,1007.95
2016-10-02T04:01:22.844Z,1007.94
2016-10-02T04:02:23.531Z,1007.93
2016-10-02T04:03:24.216Z,1007.92
2016-10-02T04:04:24.919Z,1007.94
2016-10-02T04:05:25.593Z,1007.95
2016-10-02T04:06:26.270Z,1007.97
2016-10-02T04:07:26.981Z,1007.93
2016-10-02T04:08:27.651Z,1008
2016-10-02T04:09:28.330Z,1007.99
2016-10-02T04:10:29.095Z,1007.98
2016-10-02T04:11:30.085Z,1007.97
2016-10-02T04:12:31.449Z,1007.96
2016-10-02T04:13:32.145Z,1007.95
2016-10-02T04:14:32.820Z,1007.97
2016-10-02T04:15:33.503Z,1007.95
2016-10-02T04:16:34.284Z,1007.97
2016-10-02T04:17:34.965Z,1007.92
2016-10-02T04:18:35.655Z,1007.95
2016-10-02T04:19:36.363Z,1007.98
2016-10-02T04:20:37.063Z,1007.98
2016-10-02T04:21:37.744Z,1007.99
2016-10-02T04:22:38.431Z,1007.99
2016-10-02T04:23:39.137Z,1008.04
2016-10-02T04:24:39.804Z,1008.04
2016-10-02T04:25:40.500Z,1008.03
2016-10-02T04:26:41.243Z,1008.03
2016-10-02T04:27:41.915Z,1008.05
2016-10-02T04:28:42.606Z,1008.01
2016-10-02T04:29:43.295Z,1008.06
2016-10-02T04:30:43.978Z,1008.06
2016-10-02T04:31:44.646Z,1008.01
2016-10-02T04:32:45.319Z,1008.01
2016-10-02T04:33:46.017Z,1008.02
2016-10-02T04:34:46.699Z,1008.05
2016-10-02T04:35:47.371Z,1008.05
2016-10-02T04:36:48.048Z,1008.06
2016-10-02T04:37:48.732Z,1008.07
2016-10-02T04:38:49.407Z,1008.03
2016-10-02T04:39:50.097Z,1007.98
2016-10-02T04:40:50.774Z,1007.98
2016-10-02T04:41:51.481Z,1008.04
2016-10-02T04:42:52.162Z,1008.09
2016-10-02T04:43:52.872Z,1008.06
2016-10-02T04:44:53.630Z,1008.07
2016-10-02T04:45:54.308Z,1008.12
2016-10-02T04:46:54.995Z,1008.1
2016-10-02T04:47:55.676Z,1008.14
2016-10-02T04:48:56.365Z,1008.11
2016-10-02T04:49:57.045Z,1008.06
2016-10-02T04:50:57.715Z,1008.13
2016-10-02T04:51:58.391Z,1008.17
2016-10-02T04:52:59.075Z,1008.15
2016-10-02T04:53:59.759Z,1008.2
2016-10-02T04:55:00.430Z,1008.22
2016-10-02T04:56:01.100Z,1008.23
2016-10-02T04:57:01.774Z,1008.21
2016-10-02T04:58:03.450Z,1008.25
2016-10-02T04:59:04.159Z,1008.26
2016-10-02T05:00:04.840Z,1008.27
2016-10-02T05:01:05.515Z,1008.29
2016-10-02T05:02:06.193Z,1008.34
2016-10-02T05:03:06.866Z,1008.35
2016-10-02T05:04:07.536Z,1008.37
2016-10-02T05:05:08.232Z,1008.34
2016-10-02T05:06:08.892Z,1008.41
2016-10-02T05:07:09.585Z,1008.38
2016-10-02T05:08:10.277Z,1008.4
2016-10-02T05:09:11.415Z,1008.42
2016-10-02T05:10:12.098Z,1008.45
2016-10-02T05:11:12.817Z,1008.52
2016-10-02T05:12:13.541Z,1008.51
2016-10-02T05:13:14.230Z,1008.48
2016-10-02T05:14:14.917Z,1008.5
2016-10-02T05:15:16.332Z,1008.52
2016-10-02T05:16:17.399Z,1008.5
2016-10-02T05:17:18.505Z,1008.5
2016-10-02T05:18:19.381Z,1008.48
2016-10-02T05:19:20.151Z,1008.48
2016-10-02T05:20:20.906Z,1008.51
2016-10-02T05:21:21.750Z,1008.54
2016-10-02T05:22:22.532Z,1008.53
2016-10-02T05:23:23.268Z,1008.52
2016-10-02T05:24:24.001Z,1008.54
2016-10-02T05:25:24.729Z,1008.53
2016-10-02T05:26:25.415Z,1008.59
2016-10-02T05:27:26.141Z,1008.57
2016-10-02T05:28:26.865Z,1008.62
2016-10-02T05:29:27.589Z,1008.61
2016-10-02T05:30:28.384Z,1008.61
2016-10-02T05:31:29.100Z,1008.61
2016-10-02T05:32:29.810Z,1008.62
2016-10-02T05:33:30.553Z,1008.64
2016-10-02T05:34:31.260Z,1008.67
2016-10-02T05:35:31.932Z,1008.67
2016-10-02T05:36:32.604Z,1008.66
2016-10-02T05:37:33.284Z,1008.65
2016-10-02T05:38:33.963Z,1008.63
2016-10-02T05:39:34.639Z,1008.65
2016-10-02T05:40:35.318Z,1008.65
2016-10-02T05:41:36.017Z,1008.66
2016-10-02T05:42:36.686Z,1008.69
2016-10-02T05:43:37.362Z,1008.65
2016-10-02T05:44:38.032Z,1008.67
2016-10-02T05:45:38.707Z,1008.67
2016-10-02T05:46:39.382Z,1008.68
2016-10-02T05:47:40.059Z,1008.67
2016-10-02T05:48:40.735Z,1008.71
2016-10-02T05:49:41.424Z,1008.74
2016-10-02T05:50:42.116Z,1008.75
2016-10-02T05:51:42.851Z,1008.73
2016-10-02T05:52:43.526Z,1008.72
2016-10-02T05:53:44.216Z,1008.74
2016-10-02T05:54:44.919Z,1008.73
2016-10-02T05:55:45.595Z,1008.69
2016-10-02T05:56:46.268Z,1008.69
2016-10-02T05:57:46.946Z,1008.71
2016-10-02T05:58:47.613Z,1008.74
2016-10-02T05:59:48.287Z,1008.74
2016-10-02T06:00:48.959Z,1008.73
2016-10-02T06:01:49.651Z,1008.75
2016-10-02T06:02:50.346Z,1008.71
2016-10-02T06:03:51.026Z,1008.74
2016-10-02T06:04:51.696Z,1008.75
2016-10-02T06:05:52.372Z,1008.76
2016-10-02T06:06:53.043Z,1008.72
2016-10-02T06:07:53.761Z,1008.73
2016-10-02T06:08:54.475Z,1008.76
2016-10-02T06:09:55.148Z,1008.78
2016-10-02T06:10:55.820Z,1008.8
2016-10-02T06:11:56.510Z,1008.8
2016-10-02T06:12:57.225Z,1008.82
2016-10-02T06:13:58.873Z,1008.78
2016-10-02T06:14:59.591Z,1008.82
2016-10-02T06:16:00.271Z,1008.83
2016-10-02T06:17:00.950Z,1008.79
2016-10-02T06:18:01.636Z,1008.81
2016-10-02T06:19:02.307Z,1008.81
2016-10-02T06:20:02.987Z,1008.79
2016-10-02T06:21:03.666Z,1008.77
2016-10-02T06:22:04.350Z,1008.8
2016-10-02T06:23:05.030Z,1008.78
2016-10-02T06:24:05.703Z,1008.76
2016-10-02T06:25:06.388Z,1008.79
2016-10-02T06:26:07.066Z,1008.79
2016-10-02T06:27:07.735Z,1008.85
2016-10-02T06:28:08.413Z,1008.86
2016-10-02T06:29:09.100Z,1008.89
2016-10-02T06:30:09.804Z,1008.91
2016-10-02T06:31:10.485Z,1008.91
2016-10-02T06:32:11.180Z,1008.97
2016-10-02T06:33:11.863Z,1008.94
2016-10-02T06:34:12.533Z,1008.94
2016-10-02T06:35:13.211Z,1008.97
2016-10-02T06:36:13.884Z,1008.97
2016-10-02T06:37:14.564Z,1009.01
2016-10-02T06:38:15.259Z,1009.04
2016-10-02T06:39:15.966Z,1009.08
2016-10-02T06:40:16.649Z,1009.05
2016-10-02T06:41:17.346Z,1009.04
2016-10-02T06:42:18.025Z,1009.05
2016-10-02T06:43:18.695Z,1009.12
2016-10-02T06:44:19.369Z,1009.11
2016-10-02T06:45:20.060Z,1009.1
2016-10-02T06:46:20.762Z,1009.09
2016-10-02T06:47:21.438Z,1009.12
2016-10-02T06:48:22.114Z,1009.15
2016-10-02T06:49:22.792Z,1009.16
2016-10-02T06:50:23.496Z,1009.13
2016-10-02T06:51:24.179Z,1009.13
2016-10-02T06:52:24.855Z,1009.16
2016-10-02T06:53:25.544Z,1009.15
2016-10-02T06:54:26.233Z,1009.23
2016-10-02T06:55:26.925Z,1009.2
2016-10-02T06:56:27.620Z,1009.24
2016-10-02T06:57:28.311Z,1009.2
2016-10-02T06:58:29.013Z,1009.25
2016-10-02T06:59:29.701Z,1009.31
2016-10-02T07:00:30.386Z,1009.27
2016-10-02T07:01:31.068Z,1009.36
2016-10-02T07:02:31.767Z,1009.32
2016-10-02T07:03:32.449Z,1009.31
2016-10-02T07:04:33.135Z,1009.2
2016-10-02T07:05:33.835Z,1009.36
2016-10-02T07:06:34.531Z,1009.34
2016-10-02T07:07:35.221Z,1009.36
2016-10-02T07:08:35.919Z,1009.37
2016-10-02T07:09:36.622Z,1009.39
2016-10-02T07:10:37.333Z,1009.37
2016-10-02T07:11:38.036Z,1009.36
2016-10-02T07:12:38.722Z,1009.43
2016-10-02T07:13:39.427Z,1009.35
2016-10-02T07:14:40.130Z,1009.37
2016-10-02T07:15:40.833Z,1009.37
2016-10-02T07:16:41.533Z,1009.35
2016-10-02T07:17:42.236Z,1009.4
2016-10-02T07:18:42.943Z,1009.43
2016-10-02T07:19:43.626Z,1009.42
2016-10-02T07:20:44.326Z,1009.4
2016-10-02T07:21:45.009Z,1009.4
2016-10-02T07:22:45.698Z,1009.43
2016-10-02T07:23:46.387Z,1009.42
2016-10-02T07:24:47.076Z,1009.42
2016-10-02T07:25:47.768Z,1009.45
2016-10-02T07:26:48.458Z,1009.46
2016-10-02T07:27:49.143Z,1009.41
2016-10-02T07:28:49.834Z,1009.44
2016-10-02T07:29:50.539Z,1009.4
2016-10-02T07:30:51.213Z,1009.35
2016-10-02T07:31:51.907Z,1009.38
2016-10-02T07:32:52.612Z,1009.39
2016-10-02T07:33:53.301Z,1009.4
2016-10-02T07:34:54.009Z,1009.43
2016-10-02T07:35:54.698Z,1009.39
2016-10-02T07:36:55.404Z,1009.43
2016-10-02T07:37:56.113Z,1009.46
2016-10-02T07:38:56.797Z,1009.43
2016-10-02T07:39:57.491Z,1009.38
2016-10-02T07:40:58.178Z,1009.42
2016-10-02T07:41:58.858Z,1009.41
2016-10-02T07:42:59.569Z,1009.46
2016-10-02T07:44:00.261Z,1009.4
2016-10-02T07:45:00.965Z,1009.42
2016-10-02T07:46:01.644Z,1009.4
2016-10-02T07:47:02.347Z,1009.42
2016-10-02T07:48:03.045Z,1009.36
2016-10-02T07:49:03.749Z,1009.35
2016-10-02T07:50:04.440Z,1009.34
2016-10-02T07:51:05.136Z,1009.33
2016-10-02T07:52:05.817Z,1009.3
2016-10-02T07:53:06.507Z,1009.3
2016-10-02T07:54:07.202Z,1009.31
2016-10-02T07:55:07.881Z,1009.37
2016-10-02T07:56:08.577Z,1009.43
2016-10-02T07:57:09.267Z,1009.41
2016-10-02T07:58:09.963Z,1009.48
2016-10-02T07:59:10.651Z,1009.46
2016-10-02T08:00:11.358Z,1009.48
2016-10-02T08:01:12.038Z,1009.46
2016-10-02T08:02:12.726Z,1009.49
2016-10-02T08:03:13.414Z,1009.48
2016-10-02T08:04:14.117Z,1009.53
2016-10-02T08:05:14.826Z,1009.51
2016-10-02T08:06:15.519Z,1009.52
2016-10-02T08:07:16.225Z,1009.55
2016-10-02T08:08:16.911Z,1009.48
2016-10-02T08:09:17.618Z,1009.51
2016-10-02T08:10:18.328Z,1009.47
2016-10-02T08:11:19.036Z,1009.56
2016-10-02T08:12:19.738Z,1009.57
2016-10-02T08:13:20.440Z,1009.58
2016-10-02T08:14:21.140Z,1009.55
2016-10-02T08:15:21.844Z,1009.58
2016-10-02T08:16:22.547Z,1009.64
2016-10-02T08:17:23.236Z,1009.64
2016-10-02T08:18:23.925Z,1009.62
2016-10-02T08:19:24.623Z,1009.64
2016-10-02T08:20:25.329Z,1009.65
2016-10-02T08:21:26.050Z,1009.66
2016-10-02T08:22:26.760Z,1009.69
2016-10-02T08:23:27.447Z,1009.71
2016-10-02T08:24:28.139Z,1009.71
2016-10-02T08:25:28.850Z,1009.68
2016-10-02T08:26:29.551Z,1009.71
2016-10-02T08:27:30.251Z,1009.69
2016-10-02T08:28:30.946Z,1009.68
2016-10-02T08:29:31.647Z,1009.74
2016-10-02T08:30:32.341Z,1009.72
2016-10-02T08:31:33.062Z,1009.73
2016-10-02T08:32:33.757Z,1009.76
2016-10-02T08:33:34.457Z,1009.74
2016-10-02T08:34:35.154Z,1009.76
2016-10-02T08:35:35.864Z,1009.79
2016-10-02T08:36:36.585Z,1009.82
2016-10-02T08:37:37.282Z,1009.82
2016-10-02T08:38:37.988Z,1009.82
2016-10-02T08:39:38.700Z,1009.81
2016-10-02T08:40:39.393Z,1009.85
2016-10-02T08:41:40.080Z,1009.85
2016-10-02T08:42:40.766Z,1009.86
2016-10-02T08:43:41.470Z,1009.86
2016-10-02T08:44:42.190Z,1009.88
2016-10-02T08:45:42.904Z,1009.88
2016-10-02T08:46:43.600Z,1009.92
2016-10-02T08:47:44.312Z,1009.89
2016-10-02T08:48:45.003Z,1009.87
2016-10-02T08:49:45.712Z,1009.87
2016-10-02T08:50:46.403Z,1009.85
2016-10-02T08:51:47.097Z,1009.88
2016-10-02T08:52:47.790Z,1009.89
2016-10-02T08:53:48.496Z,1009.89
2016-10-02T08:54:49.180Z,1009.89
2016-10-02T08:55:49.897Z,1009.86
2016-10-02T08:56:50.587Z,1009.89
2016-10-02T08:57:51.281Z,1009.88
2016-10-02T08:58:51.991Z,1009.95
2016-10-02T08:59:52.695Z,1009.96
2016-10-02T09:00:53.433Z,1009.91
2016-10-02T09:01:54.126Z,1009.92
2016-10-02T09:02:54.817Z,1009.91
2016-10-02T09:03:55.508Z,1009.9
2016-10-02T09:04:56.210Z,1009.91
2016-10-02T09:05:56.902Z,1009.86
2016-10-02T09:06:57.607Z,1009.84
2016-10-02T09:07:58.295Z,1009.83
2016-10-02T09:08:58.988Z,1009.79
2016-10-02T09:09:59.678Z,1009.8
2016-10-02T09:11:00.363Z,1009.8
2016-10-02T09:12:01.056Z,1009.8
2016-10-02T09:13:01.757Z,1009.81
2016-10-02T09:14:02.449Z,1009.74
2016-10-02T09:15:03.149Z,1009.73
2016-10-02T09:16:03.851Z,1009.74
2016-10-02T09:17:04.547Z,1009.7
2016-10-02T09:18:05.247Z,1009.71
2016-10-02T09:19:05.987Z,1009.77
2016-10-02T09:20:06.693Z,1009.76
2016-10-02T09:21:07.392Z,1009.74
2016-10-02T09:22:08.120Z,1009.73
2016-10-02T09:23:08.827Z,1009.72
2016-10-02T09:24:09.535Z,1009.73
2016-10-02T09:25:10.252Z,1009.72
2016-10-02T09:26:10.940Z,1009.71
2016-10-02T09:27:11.647Z,1009.73
2016-10-02T09:28:12.335Z,1009.7
2016-10-02T09:29:13.036Z,1009.74
2016-10-02T09:30:13.727Z,1009.73
2016-10-02T09:31:14.418Z,1009.78
2016-10-02T09:32:15.116Z,1009.77
2016-10-02T09:33:15.825Z,1009.75
2016-10-02T09:34:16.515Z,1009.79
2016-10-02T09:35:17.196Z,1009.75
2016-10-02T09:36:17.955Z,1009.77
2016-10-02T09:37:18.648Z,1009.74
2016-10-02T09:38:19.394Z,1009.76
2016-10-02T09:39:20.128Z,1009.81
2016-10-02T09:40:20.815Z,1009.84
2016-10-02T09:41:21.541Z,1009.78
2016-10-02T09:42:22.308Z,1009.77
2016-10-02T09:43:23.015Z,1009.79
2016-10-02T09:44:23.763Z,1009.83
2016-10-02T09:45:24.480Z,1009.81
2016-10-02T09:46:25.248Z,1009.82
2016-10-02T09:47:25.981Z,1009.81
2016-10-02T09:48:26.748Z,1009.87
2016-10-02T09:49:27.540Z,1009.89
2016-10-02T09:50:28.291Z,1009.91
2016-10-02T09:51:29.056Z,1009.95
2016-10-02T09:52:29.811Z,1009.87
2016-10-02T09:53:30.551Z,1009.86
2016-10-02T09:54:31.304Z,1009.88
2016-10-02T09:55:32.001Z,1009.91
2016-10-02T09:56:32.748Z,1009.95
2016-10-02T09:57:33.449Z,1009.94
2016-10-02T09:58:34.192Z,1009.93
2016-10-02T09:59:34.993Z,1009.91
2016-10-02T10:00:35.842Z,1009.93
2016-10-02T10:01:36.591Z,1009.95
2016-10-02T10:02:37.376Z,1009.93
2016-10-02T10:03:38.221Z,1009.94
2016-10-02T10:04:38.969Z,1009.93
2016-10-02T10:05:39.715Z,1009.92
2016-10-02T10:06:40.446Z,1009.97
2016-10-02T10:07:41.224Z,1009.97
2016-10-02T10:08:41.964Z,1009.99
2016-10-02T10:09:42.797Z,1009.94
2016-10-02T10:10:44.006Z,1009.94
2016-10-02T10:11:45.263Z,1009.9
2016-10-02T10:12:46.056Z,1009.89
2016-10-02T10:13:46.896Z,1009.91
2016-10-02T10:14:47.574Z,1009.9
2016-10-02T10:15:48.280Z,1009.92
2016-10-02T10:16:48.974Z,1009.92
2016-10-02T10:17:49.795Z,1009.91
2016-10-02T10:18:50.551Z,1009.89
2016-10-02T10:19:51.468Z,1009.9
2016-10-02T10:20:52.412Z,1009.93
2016-10-02T10:21:53.151Z,1009.87
2016-10-02T10:22:53.882Z,1009.83
2016-10-02T10:23:54.615Z,1009.88
2016-10-02T10:24:55.380Z,1009.92
2016-10-02T10:25:56.133Z,1009.9
2016-10-02T10:26:56.894Z,1009.9
2016-10-02T10:27:57.646Z,1009.88
2016-10-02T10:28:58.387Z,1009.89
2016-10-02T10:29:59.128Z,1009.88
2016-10-02T10:30:59.832Z,1009.92
2016-10-02T10:32:00.524Z,1009.89
2016-10-02T10:33:01.213Z,1009.9
2016-10-02T10:34:01.939Z,1009.94
2016-10-02T10:35:02.647Z,1009.92
2016-10-02T10:36:03.322Z,1009.92
2016-10-02T10:37:04.001Z,1009.85
2016-10-02T10:38:04.718Z,1009.86
2016-10-02T10:39:05.400Z,1009.87
2016-10-02T10:40:06.106Z,1009.85
2016-10-02T10:41:06.788Z,1009.85
2016-10-02T10:42:07.461Z,1009.83
2016-10-02T10:43:08.450Z,1009.87
2016-10-02T10:44:09.232Z,1009.84
2016-10-02T10:45:09.917Z,1009.88
2016-10-02T10:46:10.607Z,1009.89
2016-10-02T10:47:11.288Z,1009.87
2016-10-02T10:48:11.964Z,1009.9
2016-10-02T10:49:12.677Z,1009.92
2016-10-02T10:50:13.358Z,1009.97
2016-10-02T10:51:14.054Z,1009.94
2016-10-02T10:52:14.754Z,1009.9
2016-10-02T10:53:15.465Z,1009.98
2016-10-02T10:54:16.152Z,1009.98
2016-10-02T10:55:16.861Z,1009.99
2016-10-02T10:56:17.564Z,1009.99
2016-10-02T10:57:18.242Z,1010
2016-10-02T10:58:18.936Z,1010.01
2016-10-02T10:59:19.628Z,1010.05
2016-10-02T11:00:20.310Z,1010.05
2016-10-02T11:01:21.007Z,1010.03
2016-10-02T11:02:21.684Z,1010.03
2016-10-02T11:03:22.367Z,1010.06
2016-10-02T11:04:23.045Z,1010.07
2016-10-02T11:05:23.733Z,1010.05
2016-10-02T11:06:24.433Z,1010.08
2016-10-02T11:07:25.108Z,1010.07
2016-10-02T11:08:25.896Z,1010.1
2016-10-02T11:09:26.748Z,1010.09
2016-10-02T11:10:27.450Z,1010.03
2016-10-02T11:11:28.158Z,1010.04
2016-10-02T11:12:28.850Z,1010.07
2016-10-02T11:13:29.677Z,1010.08
2016-10-02T11:14:30.369Z,1010.05
2016-10-02T11:15:31.060Z,1010.09
2016-10-02T11:16:31.747Z,1010.07
2016-10-02T11:17:32.440Z,1010.09
2016-10-02T11:18:33.122Z,1010.07
2016-10-02T11:19:33.842Z,1010.06
2016-10-02T11:20:35.309Z,1010.08
2016-10-02T11:21:36.160Z,1010.08
2016-10-02T11:22:39.854Z,1010.09
2016-10-02T11:23:40.536Z,1010.09
2016-10-02T11:24:41.232Z,1010.09
2016-10-02T11:25:42.024Z,1010.13
2016-10-02T11:26:42.745Z,1010.14
2016-10-02T11:27:43.463Z,1010.11
2016-10-02T11:28:44.164Z,1010.11
2016-10-02T11:29:44.873Z,1010.09
2016-10-02T11:30:45.551Z,1010.08
2016-10-02T11:31:46.241Z,1010.09
2016-10-02T11:32:47.428Z,1010.06
2016-10-02T11:33:48.199Z,1010.05
2016-10-02T11:34:48.886Z,1010.07
2016-10-02T11:35:49.579Z,1010.04
2016-10-02T11:36:50.274Z,1010.04
2016-10-02T11:37:50.966Z,1010
2016-10-02T11:38:51.665Z,1010.02
2016-10-02T11:39:52.359Z,1010.07
2016-10-02T11:40:53.084Z,1010.01
2016-10-02T11:41:53.785Z,1010.02
2016-10-02T11:42:54.490Z,1009.98
2016-10-02T11:43:55.198Z,1010.04
2016-10-02T11:44:55.916Z,1010
2016-10-02T11:45:56.609Z,1010.06
2016-10-02T11:46:57.323Z,1010.03
2016-10-02T11:47:58.001Z,1010.05
2016-10-02T11:48:58.711Z,1010.04
2016-10-02T11:49:59.402Z,1010.04
2016-10-02T11:51:00.119Z,1010.06
2016-10-02T11:52:00.840Z,1010.05
2016-10-02T11:53:01.543Z,1010.03
2016-10-02T11:54:02.239Z,1010.03
2016-10-02T11:55:02.938Z,1010.02
2016-10-02T11:56:03.628Z,1010.04
2016-10-02T11:57:04.311Z,1010.05
2016-10-02T11:58:04.989Z,1010.05
2016-10-02T11:59:05.677Z,1010.05
2016-10-02T12:00:06.381Z,1010.03
2016-10-02T12:01:07.070Z,1010.02
2016-10-02T12:02:07.761Z,1009.98
2016-10-02T12:03:08.455Z,1010.03
2016-10-02T12:04:09.153Z,1009.98
2016-10-02T12:05:09.851Z,1009.98
2016-10-02T12:06:10.548Z,1009.99
2016-10-02T12:07:11.262Z,1009.99
2016-10-02T12:08:11.954Z,1009.98
2016-10-02T12:09:12.645Z,1009.95
2016-10-02T12:10:13.332Z,1010
2016-10-02T12:11:14.031Z,1009.97
2016-10-02T12:12:14.724Z,1010
2016-10-02T12:13:15.403Z,1009.99
2016-10-02T12:14:16.107Z,1010.03
2016-10-02T12:15:16.815Z,1009.98
2016-10-02T12:16:17.509Z,1009.96
2016-10-02T12:17:18.209Z,1010.01